createdAt,value
2019-05-18T14:10:31.452Z,25.40
2019-05-18T14:13:36.353Z,27.10
2019-05-18T14:16:41.235Z,29.33
2019-05-18T14:19:46.172Z,27.17
2019-05-18T14:22:50.850Z,29.80
2019-05-18T14:25:55.618Z,27.67
2019-05-18T14:29:00.412Z,27.50
2019-05-18T14:32:05.250Z,27.60
2019-05-18T14:35:09.961Z,32.33
2019-05-18T14:38:14.737Z,30.17
2019-05-18T14:41:19.425Z,32.67
2019-05-18T14:44:24.387Z,39.43
2019-05-18T14:47:29.306Z,39.40
2019-05-18T14:50:34.055Z,36.33
2019-05-18T14:53:38.865Z,31.73
2019-05-18T14:56:43.720Z,30.73
2019-05-18T14:59:48.616Z,30.20
2019-05-18T15:02:53.554Z,27.57
2019-05-18T15:05:58.429Z,19.67
2019-05-18T15:09:04.123Z,23.03
2019-05-18T15:12:08.666Z,23.10
2019-05-18T15:15:13.885Z,25.70
2019-05-18T15:18:20.424Z,28.10
2019-05-18T15:21:25.202Z,24.30
2019-05-18T15:24:30.033Z,23.43
2019-05-18T15:27:34.854Z,26.00
2019-05-18T15:30:39.478Z,24.57
2019-05-18T15:33:46.410Z,19.47
2019-05-18T15:36:52.587Z,25.37
2019-05-18T15:39:57.370Z,32.10
2019-05-18T15:43:02.101Z,39.20
2019-05-18T15:46:06.813Z,36.87
2019-05-18T15:49:11.568Z,30.37
2019-05-18T15:52:16.368Z,24.13
2019-05-18T15:55:21.295Z,19.27
2019-05-18T15:58:27.933Z,23.13
2019-05-18T16:01:32.828Z,22.40
2019-05-18T16:04:37.546Z,21.47
2019-05-18T16:07:42.278Z,14.23
2019-05-18T16:10:48.063Z,11.33
2019-05-18T16:13:52.846Z,10.80
2019-05-18T16:16:57.690Z,11.37
2019-05-18T16:20:02.879Z,7.67
2019-05-18T16:23:07.842Z,9.10
2019-05-18T16:26:21.213Z,7.30
2019-05-18T16:29:19.255Z,7.83
2019-05-18T16:32:24.075Z,7.40
2019-05-18T16:35:28.950Z,6.70
2019-05-18T16:38:33.729Z,7.60
2019-05-18T16:41:38.561Z,6.40
2019-05-18T16:44:43.390Z,6.83
2019-05-18T16:47:48.126Z,6.37
2019-05-18T16:50:52.967Z,7.57
2019-05-18T16:53:57.791Z,6.83
2019-05-18T16:57:02.715Z,6.40
2019-05-18T17:00:08.277Z,8.17
2019-05-18T17:03:13.327Z,7.40
2019-05-18T17:06:18.129Z,7.10
2019-05-18T17:09:23.001Z,7.73
2019-05-18T17:12:27.994Z,6.73
2019-05-18T17:15:32.842Z,7.10
2019-05-18T17:18:37.542Z,7.07
2019-05-18T17:21:42.195Z,7.07
2019-05-18T17:24:47.002Z,7.03
2019-05-18T17:27:51.854Z,9.47
2019-05-18T17:30:56.802Z,7.70
2019-05-18T17:34:01.450Z,8.27
2019-05-18T17:37:06.148Z,8.27
2019-05-18T17:40:10.599Z,12.27
2019-05-18T17:43:17.130Z,11.13
2019-05-18T17:46:21.946Z,9.63
2019-05-18T17:49:27.223Z,10.40
2019-05-18T17:52:32.117Z,10.27
2019-05-18T17:55:36.750Z,10.80
2019-05-18T17:58:41.619Z,9.83
2019-05-18T18:01:46.411Z,13.87
2019-05-18T18:04:54.108Z,9.97
2019-05-18T18:07:57.518Z,12.93
2019-05-18T18:11:02.352Z,11.80
2019-05-18T18:14:07.278Z,10.40
2019-05-18T18:17:11.985Z,10.10
2019-05-18T18:20:16.736Z,13.87
2019-05-18T18:23:21.475Z,10.53
2019-05-18T18:26:26.392Z,11.17
2019-05-18T18:29:31.226Z,10.77
2019-05-18T18:32:35.864Z,10.63
2019-05-18T18:35:40.675Z,10.47
2019-05-18T18:38:45.526Z,12.30
2019-05-18T18:41:50.263Z,12.60
2019-05-18T18:44:55.177Z,10.37
2019-05-18T18:48:00.123Z,10.40
2019-05-18T18:51:05.030Z,9.77
2019-05-18T18:54:12.549Z,9.50
2019-05-18T18:57:16.278Z,9.83
2019-05-18T19:00:20.860Z,9.60
2019-05-18T19:03:25.679Z,9.40
2019-05-18T19:06:30.540Z,10.53
2019-05-18T19:09:35.458Z,15.47
2019-05-18T19:12:40.289Z,17.53
2019-05-18T19:15:45.031Z,16.00
2019-05-18T19:18:49.848Z,16.50
2019-05-18T19:21:54.604Z,15.70
2019-05-18T19:24:59.405Z,16.27
2019-05-18T19:28:04.338Z,15.83
2019-05-18T19:31:09.091Z,16.77
2019-05-18T19:34:13.912Z,20.57
2019-05-18T19:37:18.374Z,18.10
2019-05-18T19:40:22.785Z,17.77
2019-05-18T19:43:27.578Z,19.27
2019-05-18T19:46:32.320Z,20.20
2019-05-18T19:49:37.044Z,20.83
2019-05-18T19:52:42.913Z,20.27
2019-05-18T19:55:47.592Z,19.63
2019-05-18T19:58:52.350Z,19.27
2019-05-18T20:01:56.954Z,19.83
2019-05-18T20:05:07.758Z,19.73
2019-05-18T20:08:08.053Z,19.23
2019-05-18T20:11:12.770Z,19.80
2019-05-18T20:14:17.613Z,18.77
2019-05-18T20:17:22.357Z,19.10
2019-05-18T20:20:27.113Z,19.80
2019-05-18T20:23:31.801Z,20.70
2019-05-18T20:26:36.788Z,19.20
2019-05-18T20:29:41.484Z,19.97
2019-05-18T20:32:46.113Z,21.57
2019-05-18T20:35:51.022Z,21.07
2019-05-18T20:38:55.786Z,23.90
2019-05-18T20:42:00.369Z,24.37
2019-05-18T20:45:05.211Z,26.93
2019-05-18T20:48:09.882Z,25.60
2019-05-18T20:51:14.654Z,25.40
